Porter Square, Massachusetts
Current Conditions -  °F | °C
As of 11:54 AM on Sunday 21 Dec 2014 (Local Time) from KBOS Reporting Station
Light Snow Light Snow  
Wind Chill: 26°   Ceiling: 1200
Heat Index: 32°   Visibility: 9mi
Dew Point: 25°   Wind: 7mph
Humidity: 75%   Direction: 10°N
Pressure: 30.31"   Gusts: NA
Location:  42.3933°N, 71.1333°W
Report Text: KBOS 211654Z 01006KT 9SM -SN OVC012 00/M04 A3031 RMK AO2 SNB43 SLP264 P0000 T00001039
Loading
Personal Weather Stations






























Interactive Weather Map New forecast layout! Learn more

10-Day Weather Forecast

Advertisements
Track Severe Weather on mobile